Time;durP1;ratioP1;P1;durP2;ratioP2;P2;SDS_P1;SDS_P2;PMS_P1;PMS_P2;Temp;Humidity;BMP_temperature;BMP_pressure;BME280_temperature;BME280_humidity;BME280_pressure;Samples;Min_cycle;Max_cycle;Signal;HPM_P1;HPM_P2
2023/10/17 00:00:26;;;;;;;;;3.75;2.00;;;;;;;;5034590;28;11501;-80
2023/10/17 00:02:54;;;;;;;;;3.00;3.00;;;;;;;;5027967;28;11466;-81
2023/10/17 00:05:23;;;;;;;;;2.50;2.50;;;;;;;;5028532;28;11457;-81
2023/10/17 00:07:51;;;;;;;;;4.00;4.00;;;;;;;;5028269;28;11485;-80
2023/10/17 00:10:20;;;;;;;;;7.25;3.00;;;;;;;;5028658;28;11571;-80
2023/10/17 00:12:51;;;;;;;;;2.50;2.50;;;;;;;;5028032;28;11490;-80
2023/10/17 00:15:28;;;;;;;;;4.00;2.75;;;;;;;;5028404;28;11502;-80
2023/10/17 00:18:02;;;;;;;;;1.50;1.50;;;;;;;;5028007;28;11599;-80
2023/10/17 00:20:37;;;;;;;;;4.25;3.00;;;;;;;;5028415;28;11931;-79
2023/10/17 00:23:06;;;;;;;;;5.00;3.00;;;;;;;;5028768;28;12229;-79
2023/10/17 00:25:37;;;;;;;;;3.00;1.50;;;;;;;;5027630;28;11486;-79
2023/10/17 00:28:05;;;;;;;;;3.00;2.00;;;;;;;;5028563;28;11554;-79
2023/10/17 00:30:36;;;;;;;;;2.00;2.00;;;;;;;;5027175;28;11388;-79
2023/10/17 00:33:05;;;;;;;;;3.50;3.00;;;;;;;;5028287;28;11448;-79
2023/10/17 00:35:39;;;;;;;;;5.00;3.00;;;;;;;;5028362;28;11565;-79
2023/10/17 00:38:12;;;;;;;;;3.00;3.00;;;;;;;;5028720;28;11501;-79
2023/10/17 00:40:48;;;;;;;;;4.00;3.50;;;;;;;;5028023;28;11475;-78
2023/10/17 00:43:16;;;;;;;;;6.00;3.25;;;;;;;;5029271;28;11453;-79
2023/10/17 00:45:46;;;;;;;;;3.25;3.25;;;;;;;;5030295;28;11469;-79
2023/10/17 00:48:20;;;;;;;;;5.25;4.00;;;;;;;;5031032;28;11445;-79
2023/10/17 00:50:50;;;;;;;;;3.00;3.00;;;;;;;;5030532;28;11535;-79
2023/10/17 00:53:20;;;;;;;;;6.00;3.75;;;;;;;;5013594;28;11562;-79
2023/10/17 00:55:53;;;;;;;;;5.25;4.00;;;;;;;;5031673;28;11436;-79
2023/10/17 00:58:21;;;;;;;;;2.00;1.75;;;;;;;;5028532;28;11514;-80
2023/10/17 01:00:54;;;;;;;;;3.00;3.00;;;;;;;;5027557;28;11445;-79
2023/10/17 01:03:24;;;;;;;;;2.50;2.00;;;;;;;;5027604;28;11511;-80
2023/10/17 01:06:10;;;;;;;;;2.75;2.75;;;;;;;;5028271;28;11475;-79
2023/10/17 01:08:39;;;;;;;;;3.00;3.00;;;;;;;;5028567;28;11609;-80
2023/10/17 01:11:15;;;;;;;;;2.25;1.75;;;;;;;;5027673;28;12247;-80
2023/10/17 01:13:42;;;;;;;;;2.75;1.75;;;;;;;;5027853;28;11483;-80
2023/10/17 01:16:10;;;;;;;;;4.00;4.00;;;;;;;;5027513;28;11626;-80
2023/10/17 01:18:38;;;;;;;;;3.00;3.00;;;;;;;;5028251;28;11561;-81
2023/10/17 01:21:05;;;;;;;;;0.00;0.00;;;;;;;;5027125;28;12320;-80
2023/10/17 01:23:33;;;;;;;;;3.00;3.00;;;;;;;;5026004;28;11472;-79
2023/10/17 01:26:08;;;;;;;;;3.00;3.00;;;;;;;;5027478;28;11593;-79
2023/10/17 01:28:35;;;;;;;;;2.25;2.25;;;;;;;;5029364;28;11490;-80
2023/10/17 01:31:06;;;;;;;;;3.50;2.25;;;;;;;;5028616;28;12221;-80
2023/10/17 01:33:33;;;;;;;;;3.00;3.00;;;;;;;;5037743;28;11458;-80
2023/10/17 01:36:03;;;;;;;;;4.00;2.75;;;;;;;;5047379;28;11475;-80
2023/10/17 01:38:31;;;;;;;;;2.75;2.75;;;;;;;;5046631;28;11772;-79
2023/10/17 01:41:03;;;;;;;;;4.00;2.50;;;;;;;;5048145;28;11495;-80
2023/10/17 01:43:36;;;;;;;;;2.00;2.00;;;;;;;;5050413;28;12249;-79
2023/10/17 01:46:05;;;;;;;;;3.75;3.00;;;;;;;;5050915;28;11469;-80
2023/10/17 01:48:33;;;;;;;;;2.00;2.00;;;;;;;;5050761;28;11538;-79
2023/10/17 01:51:06;;;;;;;;;3.00;3.00;;;;;;;;5051002;28;11447;-80
2023/10/17 01:53:34;;;;;;;;;4.00;2.25;;;;;;;;5050781;28;11449;-80
2023/10/17 01:56:13;;;;;;;;;3.50;3.00;;;;;;;;5050362;28;11435;-79
2023/10/17 01:58:42;;;;;;;;;5.50;3.50;;;;;;;;5051040;28;12241;-79
2023/10/17 02:01:14;;;;;;;;;7.25;4.75;;;;;;;;5049889;28;11472;-80
2023/10/17 02:03:41;;;;;;;;;3.50;3.50;;;;;;;;5050369;28;11550;-79
2023/10/17 02:06:15;;;;;;;;;3.75;3.50;;;;;;;;5051340;28;11438;-80
2023/10/17 02:08:43;;;;;;;;;7.50;3.25;;;;;;;;5050581;28;11434;-79
2023/10/17 02:11:23;;;;;;;;;3.00;3.00;;;;;;;;5051121;28;11504;-80
2023/10/17 02:13:53;;;;;;;;;2.00;2.00;;;;;;;;5050260;28;12231;-79
2023/10/17 02:16:21;;;;;;;;;2.50;2.50;;;;;;;;5051023;28;11428;-79
2023/10/17 02:18:49;;;;;;;;;3.50;3.50;;;;;;;;5050160;28;11453;-80
2023/10/17 02:21:16;;;;;;;;;3.50;3.50;;;;;;;;5051640;28;11432;-79
2023/10/17 02:23:49;;;;;;;;;6.50;3.00;;;;;;;;5054006;28;11559;-79
2023/10/17 02:26:21;;;;;;;;;3.00;3.00;;;;;;;;5055553;28;11468;-78
2023/10/17 02:28:50;;;;;;;;;1.75;1.75;;;;;;;;5040004;28;11442;-79
2023/10/17 02:31:22;;;;;;;;;5.50;3.00;;;;;;;;5050486;28;11346;-79
2023/10/17 02:33:50;;;;;;;;;3.25;3.25;;;;;;;;5040158;28;11464;-79
2023/10/17 02:36:17;;;;;;;;;3.00;3.00;;;;;;;;5053082;28;11562;-80
2023/10/17 02:38:44;;;;;;;;;2.00;2.00;;;;;;;;5053216;28;11473;-79
2023/10/17 02:41:18;;;;;;;;;5.75;3.00;;;;;;;;5053085;28;11486;-79
2023/10/17 02:43:47;;;;;;;;;3.50;3.50;;;;;;;;5053613;28;11551;-80
2023/10/17 02:46:15;;;;;;;;;3.50;3.50;;;;;;;;5053843;28;11463;-79
2023/10/17 02:48:45;;;;;;;;;6.75;3.25;;;;;;;;5053256;28;11444;-80
2023/10/17 02:51:33;;;;;;;;;4.00;4.00;;;;;;;;5050378;28;11455;-80
2023/10/17 02:54:05;;;;;;;;;3.00;3.00;;;;;;;;5050682;28;11507;-79
2023/10/17 02:56:37;;;;;;;;;4.00;4.00;;;;;;;;5040408;28;11458;-80
2023/10/17 02:59:09;;;;;;;;;7.00;4.50;;;;;;;;5049624;28;12299;-80
2023/10/17 03:01:42;;;;;;;;;4.00;4.00;;;;;;;;5049305;28;11445;-80
2023/10/17 03:04:12;;;;;;;;;1.25;1.25;;;;;;;;5049731;28;11554;-80
2023/10/17 03:06:41;;;;;;;;;3.75;3.75;;;;;;;;5049865;28;11425;-80
2023/10/17 03:09:33;;;;;;;;;6.50;4.00;;;;;;;;5049380;28;11429;-79
2023/10/17 03:12:10;;;;;;;;;4.00;4.00;;;;;;;;5048973;28;12316;-80
2023/10/17 03:15:16;;;;;;;;;2.75;2.75;;;;;;;;5049742;28;11517;-80
2023/10/17 03:17:27;;;;;;;;;5.00;4.50;;;;;;;;5049496;28;11429;-79
2023/10/17 03:19:57;;;;;;;;;6.00;4.50;;;;;;;;5048830;28;11568;-80
2023/10/17 03:22:27;;;;;;;;;4.25;4.25;;;;;;;;5049584;28;11486;-80
2023/10/17 03:25:01;;;;;;;;;2.00;2.00;;;;;;;;5048628;28;11483;-80
2023/10/17 03:27:35;;;;;;;;;3.75;3.75;;;;;;;;5048973;28;11517;-79
2023/10/17 03:30:08;;;;;;;;;2.50;2.50;;;;;;;;5048253;28;12294;-79
2023/10/17 03:32:43;;;;;;;;;5.00;5.00;;;;;;;;5048734;28;11619;-80
2023/10/17 03:35:20;;;;;;;;;2.50;2.00;;;;;;;;5049093;28;11477;-80
2023/10/17 03:37:47;;;;;;;;;3.25;3.00;;;;;;;;5048224;28;11504;-79
2023/10/17 03:40:17;;;;;;;;;10.50;5.00;;;;;;;;5048979;28;11489;-79
2023/10/17 03:42:46;;;;;;;;;4.00;3.25;;;;;;;;5048163;28;11565;-79
2023/10/17 03:45:23;;;;;;;;;6.75;6.25;;;;;;;;5049015;28;11520;-79
2023/10/17 03:47:54;;;;;;;;;3.75;3.75;;;;;;;;5047114;28;11498;-80
2023/10/17 03:53:15;;;;;;;;;6.50;5.50;;;;;;;;5044313;28;11600;-79
2023/10/17 03:55:44;;;;;;;;;5.50;3.00;;;;;;;;5048075;28;11593;-79
2023/10/17 03:58:19;;;;;;;;;3.50;3.50;;;;;;;;5048161;28;11619;-79
2023/10/17 04:00:48;;;;;;;;;6.50;5.00;;;;;;;;5047235;28;11465;-80
2023/10/17 04:03:21;;;;;;;;;6.25;6.25;;;;;;;;5048443;28;11948;-80
2023/10/17 04:05:50;;;;;;;;;7.75;5.75;;;;;;;;5051606;28;11512;-87
2023/10/17 04:08:25;;;;;;;;;3.50;2.00;;;;;;;;5048396;28;11542;-86
2023/10/17 04:11:14;;;;;;;;;3.25;3.25;;;;;;;;5048448;28;11501;-86
2023/10/17 04:13:40;;;;;;;;;6.75;4.25;;;;;;;;5048895;28;11412;-84
2023/10/17 04:16:10;;;;;;;;;7.50;3.00;;;;;;;;5048564;28;11501;-86
2023/10/17 04:18:40;;;;;;;;;5.50;4.00;;;;;;;;5046115;28;11508;-83
2023/10/17 04:21:26;;;;;;;;;4.00;4.00;;;;;;;;5049343;28;11492;-81
2023/10/17 04:23:55;;;;;;;;;5.00;5.00;;;;;;;;5043980;28;11488;-83
2023/10/17 04:26:27;;;;;;;;;6.75;6.75;;;;;;;;5050562;28;11475;-82
2023/10/17 04:28:55;;;;;;;;;5.75;4.00;;;;;;;;5050142;28;11488;-84
2023/10/17 04:31:26;;;;;;;;;2.00;2.00;;;;;;;;5049482;28;11459;-83
2023/10/17 04:34:06;;;;;;;;;6.75;6.00;;;;;;;;5051396;28;11475;-83
2023/10/17 04:36:38;;;;;;;;;6.00;6.00;;;;;;;;5048710;28;11534;-82
2023/10/17 04:39:18;;;;;;;;;7.50;3.00;;;;;;;;5047706;28;12155;-82
2023/10/17 04:42:09;;;;;;;;;3.75;3.00;;;;;;;;5047345;28;11476;-80
2023/10/17 04:44:36;;;;;;;;;3.00;3.00;;;;;;;;5047323;28;11503;-80
2023/10/17 04:49:50;;;;;;;;;6.00;5.00;;;;;;;;5046527;28;11508;-81
2023/10/17 04:52:19;;;;;;;;;0.50;0.00;;;;;;;;5046528;28;11574;-80
2023/10/17 04:54:47;;;;;;;;;3.00;3.00;;;;;;;;5047569;28;11475;-80
2023/10/17 04:57:16;;;;;;;;;6.00;3.50;;;;;;;;5047294;28;11497;-80
2023/10/17 04:59:51;;;;;;;;;4.75;4.75;;;;;;;;5048070;28;11583;-80
2023/10/17 05:02:54;;;;;;;;;6.00;6.00;;;;;;;;5049699;28;11529;-81
2023/10/17 05:08:18;;;;;;;;;2.00;2.00;;;;;;;;5046825;28;11600;-80
2023/10/17 06:16:59;;;;;;;;;7.50;5.00;;;;;;;;5052248;28;11512;-77
2023/10/17 06:19:27;;;;;;;;;7.75;5.00;;;;;;;;5053243;28;11518;-78
2023/10/17 06:30:29;;;;;;;;;5.25;4.00;;;;;;;;5048805;28;11505;-76
2023/10/17 06:35:46;;;;;;;;;6.75;6.75;;;;;;;;5049637;28;12303;-81
2023/10/17 06:38:16;;;;;;;;;6.75;5.00;;;;;;;;5049346;28;11530;-77
2023/10/17 06:40:52;;;;;;;;;6.25;5.50;;;;;;;;5049532;28;11552;-78
2023/10/17 06:43:27;;;;;;;;;9.25;7.75;;;;;;;;5048169;28;11598;-78
2023/10/17 06:46:05;;;;;;;;;8.50;8.50;;;;;;;;5048968;28;11519;-80
2023/10/17 06:48:36;;;;;;;;;13.75;9.50;;;;;;;;5049612;28;11591;-81
2023/10/17 06:53:52;;;;;;;;;4.25;4.25;;;;;;;;5049314;28;11504;-77
2023/10/17 06:56:21;;;;;;;;;5.00;5.00;;;;;;;;5048490;28;11540;-78
2023/10/17 06:58:48;;;;;;;;;6.00;6.00;;;;;;;;5048929;28;11647;-78
2023/10/17 07:01:26;;;;;;;;;7.00;7.00;;;;;;;;5036324;28;11522;-78
2023/10/17 07:03:55;;;;;;;;;4.25;4.25;;;;;;;;5048590;28;11530;-79
2023/10/17 07:06:25;;;;;;;;;3.75;3.75;;;;;;;;5049076;28;11530;-76
2023/10/17 07:08:53;;;;;;;;;7.00;7.00;;;;;;;;5048392;28;11553;-75
2023/10/17 07:11:30;;;;;;;;;7.25;7.25;;;;;;;;5048776;28;11601;-75
2023/10/17 07:14:21;;;;;;;;;9.00;7.00;;;;;;;;5048163;28;11653;-75
2023/10/17 07:17:00;;;;;;;;;7.00;6.00;;;;;;;;5048370;28;11592;-75
2023/10/17 07:19:47;;;;;;;;;6.75;6.75;;;;;;;;5048460;28;12307;-75
2023/10/17 07:22:15;;;;;;;;;7.25;6.75;;;;;;;;5048176;28;11483;-75
2023/10/17 07:24:48;;;;;;;;;7.75;7.75;;;;;;;;5048239;28;11519;-76
2023/10/17 07:27:26;;;;;;;;;8.50;8.00;;;;;;;;5036988;28;11509;-75
2023/10/17 07:30:00;;;;;;;;;7.25;4.75;;;;;;;;5048144;28;13049;-75
2023/10/17 07:32:32;;;;;;;;;7.50;5.25;;;;;;;;5048028;28;11492;-75
2023/10/17 07:35:04;;;;;;;;;9.00;5.25;;;;;;;;5047620;28;11555;-76
2023/10/17 07:37:48;;;;;;;;;7.25;7.25;;;;;;;;5048475;28;11486;-75
2023/10/17 07:40:22;;;;;;;;;9.75;9.75;;;;;;;;5035561;28;12082;-75
2023/10/17 07:42:55;;;;;;;;;8.50;6.75;;;;;;;;5047979;28;11445;-74
2023/10/17 07:45:23;;;;;;;;;11.00;7.00;;;;;;;;5048011;28;12131;-75
2023/10/17 07:47:54;;;;;;;;;6.25;6.25;;;;;;;;5047774;28;11575;-76
2023/10/17 07:50:25;;;;;;;;;7.00;7.00;;;;;;;;5048197;28;12311;-75
2023/10/17 07:52:59;;;;;;;;;8.75;6.50;;;;;;;;5048198;28;12242;-76
2023/10/17 07:55:35;;;;;;;;;7.00;7.00;;;;;;;;5048950;28;11631;-75
2023/10/17 07:58:09;;;;;;;;;10.00;6.25;;;;;;;;5048694;28;11514;-78
2023/10/17 08:00:37;;;;;;;;;7.25;7.25;;;;;;;;5050226;28;11405;-76
2023/10/17 08:03:10;;;;;;;;;10.00;8.25;;;;;;;;5050027;28;11485;-77
2023/10/17 08:05:44;;;;;;;;;3.50;3.50;;;;;;;;5050201;28;12228;-75
2023/10/17 08:08:14;;;;;;;;;7.00;7.00;;;;;;;;5048188;28;11459;-75
2023/10/17 08:10:45;;;;;;;;;6.00;6.00;;;;;;;;5047662;28;11473;-75
2023/10/17 08:13:15;;;;;;;;;10.00;7.50;;;;;;;;5048333;28;11464;-78
2023/10/17 08:15:48;;;;;;;;;8.25;4.25;;;;;;;;5048081;28;11618;-80
2023/10/17 08:18:15;;;;;;;;;7.00;7.00;;;;;;;;5047525;28;11557;-76
2023/10/17 08:20:54;;;;;;;;;9.00;7.50;;;;;;;;5047293;28;11455;-77
2023/10/17 08:23:21;;;;;;;;;6.25;6.25;;;;;;;;5047278;28;11545;-75
2023/10/17 08:25:59;;;;;;;;;7.00;7.00;;;;;;;;5047813;28;11471;-76
2023/10/17 08:28:36;;;;;;;;;6.50;5.00;;;;;;;;5047132;28;11446;-77
2023/10/17 08:31:17;;;;;;;;;10.00;10.00;;;;;;;;5046542;28;11417;-76
2023/10/17 08:33:50;;;;;;;;;8.75;7.50;;;;;;;;5035459;28;11095;-77
2023/10/17 08:36:23;;;;;;;;;5.50;5.00;;;;;;;;5047322;28;11335;-77
2023/10/17 08:38:49;;;;;;;;;8.50;7.75;;;;;;;;5047591;28;11009;-77
2023/10/17 08:41:17;;;;;;;;;5.00;5.00;;;;;;;;5047366;28;11048;-77
2023/10/17 08:43:45;;;;;;;;;7.00;7.00;;;;;;;;5047475;28;10827;-75
2023/10/17 08:46:12;;;;;;;;;6.25;4.00;;;;;;;;5046886;28;11700;-76
2023/10/17 08:48:43;;;;;;;;;7.75;6.25;;;;;;;;5047347;28;10759;-75
2023/10/17 08:51:12;;;;;;;;;5.00;5.00;;;;;;;;5050174;28;10794;-77
2023/10/17 08:53:43;;;;;;;;;5.75;5.75;;;;;;;;5051861;28;10755;-75
2023/10/17 08:56:14;;;;;;;;;9.00;6.00;;;;;;;;5050396;28;10678;-75
2023/10/17 08:58:43;;;;;;;;;8.00;5.00;;;;;;;;5051301;28;10708;-74
2023/10/17 09:01:14;;;;;;;;;5.00;5.00;;;;;;;;5049790;28;10617;-74
2023/10/17 09:03:44;;;;;;;;;9.50;7.75;;;;;;;;5050946;28;10614;-75
2023/10/17 09:06:29;;;;;;;;;9.00;6.75;;;;;;;;5038793;28;10565;-75
2023/10/17 09:08:56;;;;;;;;;5.50;5.50;;;;;;;;5050650;28;10312;-74
2023/10/17 09:11:30;;;;;;;;;6.50;6.00;;;;;;;;5051299;28;10211;-75
2023/10/17 09:14:15;;;;;;;;;7.00;4.50;;;;;;;;5050230;28;10367;-75
2023/10/17 09:16:50;;;;;;;;;6.00;5.00;;;;;;;;5050663;28;10301;-75
2023/10/17 09:19:20;;;;;;;;;6.00;6.00;;;;;;;;5051249;28;10250;-75
2023/10/17 09:21:51;;;;;;;;;8.00;7.50;;;;;;;;5051085;28;10270;-75
2023/10/17 09:24:35;;;;;;;;;6.00;6.00;;;;;;;;5051123;28;10306;-75
2023/10/17 09:27:09;;;;;;;;;10.25;7.50;;;;;;;;5050185;28;10193;-75
2023/10/17 09:29:48;;;;;;;;;12.50;11.00;;;;;;;;5050603;28;11017;-76
2023/10/17 09:35:16;;;;;;;;;6.00;5.00;;;;;;;;5083633;27;13621;-76
2023/10/17 09:37:45;;;;;;;;;7.00;5.25;;;;;;;;5086321;28;9566;-76
2023/10/17 09:40:13;;;;;;;;;6.00;5.50;;;;;;;;5088427;28;9565;-81
2023/10/17 09:42:44;;;;;;;;;4.50;4.50;;;;;;;;5090687;28;9634;-75
2023/10/17 09:45:12;;;;;;;;;7.50;7.50;;;;;;;;5088748;28;9563;-74
2023/10/17 09:47:44;;;;;;;;;6.75;6.75;;;;;;;;5088031;28;9549;-74
2023/10/17 09:50:16;;;;;;;;;7.75;7.75;;;;;;;;5090308;28;9644;-75
2023/10/17 09:52:45;;;;;;;;;7.50;7.00;;;;;;;;5087157;28;9592;-80
2023/10/17 09:55:15;;;;;;;;;10.00;6.50;;;;;;;;5085572;28;9560;-78
2023/10/17 09:57:45;;;;;;;;;7.00;7.00;;;;;;;;5084441;28;9534;-80
2023/10/17 10:00:28;;;;;;;;;6.00;6.00;;;;;;;;5081530;28;9495;-77
2023/10/17 10:02:56;;;;;;;;;7.00;7.00;;;;;;;;5012898;28;9412;-75
2023/10/17 10:05:28;;;;;;;;;6.67;6.67;;;;;;;;5024321;28;9486;-81
2023/10/17 10:07:55;;;;;;;;;5.33;5.33;;;;;;;;5026232;28;9585;-75
2023/10/17 10:10:48;;;;;;;;;8.00;8.00;;;;;;;;5029109;28;9406;-79
2023/10/17 10:13:15;;;;;;;;;7.33;7.33;;;;;;;;5025528;28;9515;-77
2023/10/17 10:16:04;;;;;;;;;7.00;7.00;;;;;;;;5024737;28;9392;-77
2023/10/17 10:18:53;;;;;;;;;6.33;6.33;;;;;;;;5019490;28;9357;-79
2023/10/17 10:21:23;;;;;;;;;8.67;8.33;;;;;;;;5024943;28;9263;-76
2023/10/17 10:23:52;;;;;;;;;7.00;7.00;;;;;;;;5025308;28;9390;-77
2023/10/17 10:26:21;;;;;;;;;6.00;6.00;;;;;;;;5025053;28;9326;-76
2023/10/17 10:28:49;;;;;;;;;2.00;2.00;;;;;;;;5024769;28;9254;-76
2023/10/17 10:31:34;;;;;;;;;6.67;6.67;;;;;;;;5023129;28;9179;-76
2023/10/17 10:34:01;;;;;;;;;7.67;6.00;;;;;;;;5025185;28;9056;-76
2023/10/17 10:36:30;;;;;;;;;7.67;6.00;;;;;;;;5044685;28;8936;-77
2023/10/17 10:39:12;;;;;;;;;8.67;7.00;;;;;;;;5044403;28;8922;-77
2023/10/17 10:41:40;;;;;;;;;7.00;7.00;;;;;;;;5043464;28;8963;-77
2023/10/17 10:44:07;;;;;;;;;4.25;4.25;;;;;;;;5042590;28;8880;-78
2023/10/17 10:46:34;;;;;;;;;5.50;5.50;;;;;;;;5029687;28;8956;-76
2023/10/17 10:49:02;;;;;;;;;7.50;7.50;;;;;;;;5031086;28;8855;-76
2023/10/17 10:51:31;;;;;;;;;8.75;8.75;;;;;;;;5030627;28;8870;-77
2023/10/17 10:53:58;;;;;;;;;6.00;6.00;;;;;;;;5029097;28;8850;-75
2023/10/17 10:56:26;;;;;;;;;6.00;6.00;;;;;;;;5042140;28;8951;-77
2023/10/17 10:58:56;;;;;;;;;5.00;5.00;;;;;;;;5029653;28;8951;-76
2023/10/17 11:01:25;;;;;;;;;5.00;5.00;;;;;;;;5030729;28;8782;-75
2023/10/17 11:03:55;;;;;;;;;5.50;5.50;;;;;;;;5030148;28;8850;-76
2023/10/17 11:06:24;;;;;;;;;5.50;5.50;;;;;;;;5030169;28;8834;-74
2023/10/17 11:08:54;;;;;;;;;9.50;9.50;;;;;;;;5029722;28;8908;-77
2023/10/17 11:11:21;;;;;;;;;7.50;7.50;;;;;;;;5030372;28;8858;-76
2023/10/17 11:13:52;;;;;;;;;5.00;5.00;;;;;;;;5029497;28;8868;-74
2023/10/17 11:16:21;;;;;;;;;7.00;7.00;;;;;;;;5030008;28;8851;-75
2023/10/17 11:18:49;;;;;;;;;6.50;6.50;;;;;;;;5029622;28;8850;-74
2023/10/17 11:21:20;;;;;;;;;7.00;6.50;;;;;;;;5029540;28;8898;-74
2023/10/17 11:23:50;;;;;;;;;4.00;4.00;;;;;;;;5030194;28;8877;-74
2023/10/17 11:26:25;;;;;;;;;4.25;4.25;;;;;;;;5031261;28;8876;-73
2023/10/17 11:28:53;;;;;;;;;6.00;6.00;;;;;;;;5032923;28;8846;-75
2023/10/17 11:31:23;;;;;;;;;7.00;7.00;;;;;;;;5032407;28;8786;-74
2023/10/17 11:33:54;;;;;;;;;6.50;6.50;;;;;;;;5033887;28;8834;-79
2023/10/17 11:36:24;;;;;;;;;8.00;8.00;;;;;;;;5033980;28;8865;-78
2023/10/17 11:38:57;;;;;;;;;7.00;5.50;;;;;;;;5032425;28;8857;-79
2023/10/17 11:41:31;;;;;;;;;6.25;6.25;;;;;;;;5029264;28;8878;-74
2023/10/17 11:44:05;;;;;;;;;8.00;6.50;;;;;;;;5039809;28;8949;-76
2023/10/17 11:46:33;;;;;;;;;9.25;9.25;;;;;;;;5029871;28;8873;-75
2023/10/17 11:49:20;;;;;;;;;5.25;4.50;;;;;;;;5028938;28;8864;-77
2023/10/17 11:51:50;;;;;;;;;5.25;5.25;;;;;;;;5019083;28;9689;-76
2023/10/17 11:54:22;;;;;;;;;7.00;7.00;;;;;;;;5029256;28;9668;-76
2023/10/17 11:56:52;;;;;;;;;5.25;5.25;;;;;;;;5028879;28;8992;-77
2023/10/17 11:59:19;;;;;;;;;6.00;6.00;;;;;;;;5026339;28;8856;-76
2023/10/17 12:01:47;;;;;;;;;7.00;7.00;;;;;;;;5027724;28;8803;-78
2023/10/17 12:04:16;;;;;;;;;5.25;5.25;;;;;;;;5028434;28;9634;-77
2023/10/17 12:06:44;;;;;;;;;6.75;6.25;;;;;;;;5028869;28;8861;-76
2023/10/17 12:09:18;;;;;;;;;5.00;5.00;;;;;;;;5028599;28;8843;-78
2023/10/17 12:11:47;;;;;;;;;6.00;6.00;;;;;;;;5028635;28;8928;-76
2023/10/17 12:14:20;;;;;;;;;6.75;6.75;;;;;;;;5016901;28;8905;-74
2023/10/17 12:16:49;;;;;;;;;6.50;6.50;;;;;;;;5027905;28;8872;-74
2023/10/17 12:19:17;;;;;;;;;6.00;6.00;;;;;;;;5028577;28;8858;-76
2023/10/17 12:21:47;;;;;;;;;6.00;6.00;;;;;;;;5028204;28;8853;-74
2023/10/17 12:24:19;;;;;;;;;6.00;6.00;;;;;;;;5028325;28;9626;-75
2023/10/17 12:26:47;;;;;;;;;6.75;6.75;;;;;;;;5027630;28;9595;-73
2023/10/17 12:29:16;;;;;;;;;5.75;5.75;;;;;;;;5028291;28;8984;-75
2023/10/17 12:31:46;;;;;;;;;7.00;7.00;;;;;;;;5026751;28;8810;-75
2023/10/17 12:34:15;;;;;;;;;7.50;7.50;;;;;;;;5028256;28;8862;-76
2023/10/17 12:36:46;;;;;;;;;6.50;6.50;;;;;;;;5028094;28;8850;-78
2023/10/17 12:39:14;;;;;;;;;6.00;6.00;;;;;;;;5031783;28;8873;-76
2023/10/17 12:41:43;;;;;;;;;8.75;6.25;;;;;;;;5027942;28;8833;-75
2023/10/17 12:44:10;;;;;;;;;6.25;5.75;;;;;;;;5028139;28;9624;-76
2023/10/17 12:46:40;;;;;;;;;8.50;7.00;;;;;;;;5028131;28;8872;-77
2023/10/17 12:49:07;;;;;;;;;7.00;7.00;;;;;;;;5028041;28;8870;-79
2023/10/17 12:51:35;;;;;;;;;4.50;3.00;;;;;;;;5028082;28;8822;-75
2023/10/17 12:54:03;;;;;;;;;4.50;4.50;;;;;;;;5028026;28;8866;-76
2023/10/17 12:56:31;;;;;;;;;7.75;6.00;;;;;;;;5028220;28;8887;-76
2023/10/17 12:58:59;;;;;;;;;5.00;5.00;;;;;;;;5028053;28;8858;-76
2023/10/17 13:01:26;;;;;;;;;3.00;3.00;;;;;;;;5027860;28;9627;-76
2023/10/17 13:03:57;;;;;;;;;5.00;5.00;;;;;;;;5027854;28;8950;-76
2023/10/17 13:06:26;;;;;;;;;8.50;7.25;;;;;;;;5028914;28;8861;-77
2023/10/17 13:08:56;;;;;;;;;6.50;6.50;;;;;;;;5030107;28;8830;-77
2023/10/17 13:11:24;;;;;;;;;3.00;3.00;;;;;;;;5032506;28;8858;-75
2023/10/17 13:13:51;;;;;;;;;5.00;5.00;;;;;;;;5031202;28;8866;-74
2023/10/17 13:16:20;;;;;;;;;7.00;5.75;;;;;;;;5032184;28;8854;-75
2023/10/17 13:18:50;;;;;;;;;6.50;6.25;;;;;;;;5032086;28;8929;-77
2023/10/17 13:21:19;;;;;;;;;5.25;5.25;;;;;;;;5032680;28;8936;-79
2023/10/17 13:23:46;;;;;;;;;5.75;5.75;;;;;;;;5028932;28;8858;-77
2023/10/17 13:26:15;;;;;;;;;6.50;6.50;;;;;;;;5027169;28;8972;-78
2023/10/17 13:28:43;;;;;;;;;3.75;3.75;;;;;;;;5026081;28;8875;-75
2023/10/17 13:31:11;;;;;;;;;4.50;4.50;;;;;;;;5018688;28;8819;-77
2023/10/17 13:33:38;;;;;;;;;6.00;5.75;;;;;;;;5026983;28;8843;-79
2023/10/17 13:36:10;;;;;;;;;6.00;5.75;;;;;;;;5027209;28;8870;-75
2023/10/17 13:38:40;;;;;;;;;8.50;8.50;;;;;;;;5023785;28;8865;-75
2023/10/17 13:41:11;;;;;;;;;5.75;5.75;;;;;;;;5026767;28;8858;-75
2023/10/17 13:43:39;;;;;;;;;8.00;6.00;;;;;;;;5026787;28;8976;-76
2023/10/17 13:46:12;;;;;;;;;5.75;5.75;;;;;;;;5026804;28;9581;-76
2023/10/17 13:48:46;;;;;;;;;6.00;6.00;;;;;;;;5027314;28;8858;-78
2023/10/17 13:51:14;;;;;;;;;5.00;5.00;;;;;;;;5039348;28;8847;-76
2023/10/17 13:53:44;;;;;;;;;6.75;5.00;;;;;;;;5027000;28;8884;-75
2023/10/17 13:56:13;;;;;;;;;8.00;5.75;;;;;;;;5026969;28;8863;-75
2023/10/17 13:58:41;;;;;;;;;5.75;5.75;;;;;;;;5026881;28;9632;-74
2023/10/17 14:03:52;;;;;;;;;5.75;5.75;;;;;;;;5026564;28;8869;-75
2023/10/17 14:06:22;;;;;;;;;6.50;6.25;;;;;;;;5027225;28;9582;-76
2023/10/17 14:08:51;;;;;;;;;7.00;5.00;;;;;;;;5026667;28;8999;-78
2023/10/17 14:11:20;;;;;;;;;5.50;5.50;;;;;;;;5027536;28;8838;-77
2023/10/17 14:13:49;;;;;;;;;5.50;5.50;;;;;;;;5026386;28;8842;-73
2023/10/17 14:16:16;;;;;;;;;5.00;5.00;;;;;;;;5027268;28;8876;-77
2023/10/17 14:18:46;;;;;;;;;2.00;2.00;;;;;;;;5026072;28;8863;-76
2023/10/17 14:21:34;;;;;;;;;5.50;5.50;;;;;;;;5029822;28;8863;-79
2023/10/17 14:24:07;;;;;;;;;6.00;6.00;;;;;;;;5031109;28;8862;-78
2023/10/17 14:26:34;;;;;;;;;6.25;6.25;;;;;;;;5030555;28;8964;-75
2023/10/17 14:29:01;;;;;;;;;3.75;3.75;;;;;;;;5031212;28;8858;-78
2023/10/17 14:31:29;;;;;;;;;6.00;6.00;;;;;;;;5030336;28;8801;-75
2023/10/17 14:33:57;;;;;;;;;8.25;5.75;;;;;;;;5031302;28;8843;-76
2023/10/17 14:36:28;;;;;;;;;5.00;5.00;;;;;;;;5030898;28;8946;-79
2023/10/17 14:38:55;;;;;;;;;6.25;6.25;;;;;;;;5031000;28;8842;-78
2023/10/17 14:41:24;;;;;;;;;8.25;7.50;;;;;;;;5030853;28;8874;-77
2023/10/17 14:43:51;;;;;;;;;5.25;5.25;;;;;;;;5030643;28;8861;-77
2023/10/17 14:46:20;;;;;;;;;7.00;6.00;;;;;;;;5030756;28;8850;-77
2023/10/17 14:48:47;;;;;;;;;4.75;4.75;;;;;;;;5031194;28;8863;-77
2023/10/17 14:51:15;;;;;;;;;4.25;4.25;;;;;;;;5032201;28;8839;-77
2023/10/17 14:53:43;;;;;;;;;6.25;6.25;;;;;;;;5033796;28;9000;-78
2023/10/17 14:56:13;;;;;;;;;5.25;5.25;;;;;;;;5034906;28;8849;-78
2023/10/17 14:58:46;;;;;;;;;7.75;7.75;;;;;;;;5035352;28;8889;-77
2023/10/17 15:01:13;;;;;;;;;5.75;5.75;;;;;;;;5033629;28;8809;-77
2023/10/17 15:03:41;;;;;;;;;6.75;6.75;;;;;;;;5033546;28;8874;-77
2023/10/17 15:06:10;;;;;;;;;6.50;6.50;;;;;;;;5022148;28;8854;-78
2023/10/17 15:08:37;;;;;;;;;6.00;4.75;;;;;;;;5030798;28;8830;-78
2023/10/17 15:11:05;;;;;;;;;4.50;4.50;;;;;;;;5030137;28;8867;-79
2023/10/17 15:13:33;;;;;;;;;8.00;7.00;;;;;;;;5029110;28;8988;-76
2023/10/17 15:16:03;;;;;;;;;9.75;8.00;;;;;;;;5031849;28;8881;-80
2023/10/17 15:18:31;;;;;;;;;5.75;5.75;;;;;;;;5029867;28;8881;-77
2023/10/17 15:21:08;;;;;;;;;9.25;8.00;;;;;;;;5038618;28;8848;-77
2023/10/17 15:23:35;;;;;;;;;7.75;7.75;;;;;;;;5031015;28;8843;-74
2023/10/17 15:26:05;;;;;;;;;8.75;7.50;;;;;;;;5029871;28;8854;-80
2023/10/17 15:28:33;;;;;;;;;7.50;7.50;;;;;;;;5029484;28;8873;-77
2023/10/17 15:31:05;;;;;;;;;7.00;5.00;;;;;;;;5029055;28;8779;-79
2023/10/17 15:33:33;;;;;;;;;8.50;8.50;;;;;;;;5028553;28;8876;-76
2023/10/17 15:36:03;;;;;;;;;8.50;8.50;;;;;;;;5029267;28;9755;-75
2023/10/17 15:38:30;;;;;;;;;7.00;7.00;;;;;;;;5028773;28;8858;-76
2023/10/17 15:40:58;;;;;;;;;7.75;6.50;;;;;;;;5029331;28;8925;-76
2023/10/17 15:43:26;;;;;;;;;9.75;9.00;;;;;;;;5029422;28;8846;-77
2023/10/17 15:45:56;;;;;;;;;8.00;7.00;;;;;;;;5028806;28;8854;-76
2023/10/17 15:48:27;;;;;;;;;10.00;8.50;;;;;;;;5017382;28;8906;-76
2023/10/17 15:50:55;;;;;;;;;6.50;6.50;;;;;;;;5028910;28;8858;-77
2023/10/17 15:53:23;;;;;;;;;7.00;7.00;;;;;;;;5029714;28;8846;-76
2023/10/17 15:55:52;;;;;;;;;8.00;6.50;;;;;;;;5028522;28;8850;-77
2023/10/17 15:58:20;;;;;;;;;6.50;5.75;;;;;;;;5029185;28;8853;-76
2023/10/17 16:00:47;;;;;;;;;5.25;5.25;;;;;;;;5028189;28;8826;-77
2023/10/17 16:03:15;;;;;;;;;8.00;8.00;;;;;;;;5028698;28;8964;-77
2023/10/17 16:05:44;;;;;;;;;8.00;7.25;;;;;;;;5028448;28;8924;-78
2023/10/17 16:08:11;;;;;;;;;7.00;7.00;;;;;;;;5028951;28;8866;-78
2023/10/17 16:10:39;;;;;;;;;7.75;7.75;;;;;;;;5028533;28;8850;-78
2023/10/17 16:13:10;;;;;;;;;37.00;32.00;;;;;;;;5028862;28;8839;-78
2023/10/17 16:15:37;;;;;;;;;10.25;10.25;;;;;;;;5027827;28;10109;-77
2023/10/17 16:18:05;;;;;;;;;9.50;9.00;;;;;;;;5028584;28;8867;-76
2023/10/17 16:20:33;;;;;;;;;11.00;9.50;;;;;;;;5028638;28;8834;-75
2023/10/17 16:23:02;;;;;;;;;8.00;7.25;;;;;;;;5028374;28;8889;-78
2023/10/17 16:25:29;;;;;;;;;12.00;8.50;;;;;;;;5028757;28;8961;-77
2023/10/17 16:27:57;;;;;;;;;9.00;7.00;;;;;;;;5028476;28;8977;-79
2023/10/17 16:30:26;;;;;;;;;14.50;13.75;;;;;;;;5017177;28;8808;-79
2023/10/17 16:32:54;;;;;;;;;12.25;11.75;;;;;;;;5028407;28;8854;-80
2023/10/17 16:35:22;;;;;;;;;9.00;9.00;;;;;;;;5029175;28;8858;-80
2023/10/17 16:37:50;;;;;;;;;6.50;6.50;;;;;;;;5028301;28;8846;-76
2023/10/17 16:40:22;;;;;;;;;8.00;8.00;;;;;;;;5029765;28;8846;-78
2023/10/17 16:42:50;;;;;;;;;12.00;10.00;;;;;;;;5030649;28;8850;-77
2023/10/17 16:45:18;;;;;;;;;7.25;7.25;;;;;;;;5032190;28;8857;-77